Livonia, MI

6:12 PM EDT on September 04, 2015 (GMT -0400)
Windridge Village | | Change Station
CLOSE
Current Station
Personal Weather Station
Location: Livonia, MI
Elevation: 696 ft
Nearby Weather Stations

Elev 696 ft 42.43 °N, 83.38 °W | Updated 11 minutes ago

Mostly Cloudy
Mostly Cloudy
82.8 °F
Feels Like 86 °F
N
1.1
Wind Variable Wind from SW

Today
High -- | Low -- °F
--% Chance of Precip.
Yesterday
High -- | Low -- °F
Precip. -- in
7:01 AM 8:02 PM
Waning Gibbous, 55% visible
Pressure 30.04 in
Visibility 10.0 miles
Clouds Scattered Clouds 2700 ft
Mostly Cloudy 3400 ft
Overcast 4100 ft
Heat Index 86 °F
Dew Point 68 °F
Humidity 61%
Rainfall 0.19 in
Snow Depth Not available.
UV 1 out of 12
Pollen 7.20 out of 12
Air Quality Not available.
Flu Activity Not available.
METAR KVLL 042154Z AUTO 15004KT 10SM SCT027 BKN034 OVC041 28/22 A3004 RMK AO2 T02800223
Pressure 30.04 in
Visibility 10.0 miles
Clouds Scattered Clouds 2700 ft
Mostly Cloudy 3400 ft
Overcast 4100 ft
Heat Index 86 °F
Dew Point 68 °F
Humidity 61%
Rainfall 0.19 in
Snow Depth Not available.
UV 1 out of 12
Pollen 7.20 out of 12
Air Quality Not available.
Flu Activity Not available.
METAR KVLL 042154Z AUTO 15004KT 10SM SCT027 BKN034 OVC041 28/22 A3004 RMK AO2 T02800223

10-Day Weather Forecast

×

Almanac

Astronomy

Sep. 04, 2015 Rise Set
Actual Time
Civil Twilight
Nautical Twilight
Astronomical Twilight
Moon
Length of Visible Light
Length of Day
Tomorrow will be .
, % of the Moon is Illuminated

Today's Extremes

State Highs State Lows

Community

WunderPhotos

Upload Photos

1,852,307 photos uploaded!

WunderBlogs® & News

Nearby

Air Quality

  Air Quality AQ Index Pollutant
Not available.

Snow Depth

Station Depth Elevation

Earthquake Activity

City Distance Mag. Time & Date
Minimum magnitude displayed is 2.5.

Coastal Water Temperatures

Place Temperature

Stations

Nearby Weather Stations

Station Location Temp. Windchill Dew Point Humidity Wind Precip. Elev Updated Type